Terminal Aerodrome Forecast
Issued by NWS

Home | Current Version | Previous Version | Text Only | Print | Product List | Glossary On
Versions: 1 2 3 4 5 6 7 8 9 10 11 12 13 14 15 16 17 18 19 20 21 22 23 24 25 26 27
425
FTUS43 KBIS 170537
TAFJMS
TAF
KJMS 170537Z 1706/1806 20009KT P6SM SKC
     FM171400 23011KT P6SM SKC
     FM171800 26016G22KT P6SM SKC
     FM180100 26011KT P6SM SCT250=

USA.gov is the U.S. government's official web portal to all federal, state and local government web resources and services.